sensor_id;sensor_type;location;lat;lon;timestamp;P1;durP1;ratioP1;P2;durP2;ratioP2
20314;SDS011;10315;50.958;13.080;2022-09-17T00:04:31;5.90;;;1.30;;
20314;SDS011;10315;50.958;13.080;2022-09-17T00:14:33;3.60;;;1.47;;
20314;SDS011;10315;50.958;13.080;2022-09-17T00:24:36;8.20;;;1.37;;
20314;SDS011;10315;50.958;13.080;2022-09-17T00:34:37;6.13;;;1.37;;
20314;SDS011;10315;50.958;13.080;2022-09-17T00:44:45;11.37;;;2.03;;
20314;SDS011;10315;50.958;13.080;2022-09-17T00:54:51;1.83;;;1.10;;
20314;SDS011;10315;50.958;13.080;2022-09-17T01:04:57;5.63;;;1.20;;
20314;SDS011;10315;50.958;13.080;2022-09-17T01:15:01;4.30;;;1.37;;
20314;SDS011;10315;50.958;13.080;2022-09-17T01:25:20;2.53;;;1.10;;
20314;SDS011;10315;50.958;13.080;2022-09-17T01:35:26;2.67;;;1.00;;
20314;SDS011;10315;50.958;13.080;2022-09-17T01:45:34;7.43;;;1.40;;
20314;SDS011;10315;50.958;13.080;2022-09-17T01:55:42;8.70;;;1.30;;
20314;SDS011;10315;50.958;13.080;2022-09-17T02:05:47;1.87;;;1.03;;
20314;SDS011;10315;50.958;13.080;2022-09-17T02:15:54;2.43;;;1.17;;
20314;SDS011;10315;50.958;13.080;2022-09-17T02:26:03;5.27;;;1.77;;
20314;SDS011;10315;50.958;13.080;2022-09-17T02:36:10;4.47;;;1.77;;
20314;SDS011;10315;50.958;13.080;2022-09-17T02:46:17;7.33;;;2.10;;
20314;SDS011;10315;50.958;13.080;2022-09-17T02:56:35;7.60;;;2.37;;
20314;SDS011;10315;50.958;13.080;2022-09-17T03:06:44;1.80;;;1.70;;
20314;SDS011;10315;50.958;13.080;2022-09-17T03:16:48;4.83;;;1.73;;
20314;SDS011;10315;50.958;13.080;2022-09-17T03:26:49;5.83;;;2.40;;
20314;SDS011;10315;50.958;13.080;2022-09-17T03:36:53;5.00;;;2.67;;
20314;SDS011;10315;50.958;13.080;2022-09-17T03:46:54;7.27;;;3.13;;
20314;SDS011;10315;50.958;13.080;2022-09-17T03:56:57;5.83;;;4.33;;
20314;SDS011;10315;50.958;13.080;2022-09-17T04:06:59;9.87;;;4.60;;
20314;SDS011;10315;50.958;13.080;2022-09-17T04:17:02;14.70;;;5.30;;
20314;SDS011;10315;50.958;13.080;2022-09-17T04:27:04;13.43;;;6.17;;
20314;SDS011;10315;50.958;13.080;2022-09-17T04:37:07;9.20;;;5.20;;
20314;SDS011;10315;50.958;13.080;2022-09-17T04:47:08;12.00;;;6.37;;
20314;SDS011;10315;50.958;13.080;2022-09-17T04:57:11;13.43;;;5.63;;
20314;SDS011;10315;50.958;13.080;2022-09-17T05:07:13;8.80;;;5.43;;
20314;SDS011;10315;50.958;13.080;2022-09-17T05:17:16;10.63;;;5.90;;
20314;SDS011;10315;50.958;13.080;2022-09-17T05:27:17;9.27;;;4.90;;
20314;SDS011;10315;50.958;13.080;2022-09-17T05:37:20;6.87;;;3.67;;
20314;SDS011;10315;50.958;13.080;2022-09-17T05:47:22;7.70;;;3.80;;
20314;SDS011;10315;50.958;13.080;2022-09-17T05:57:25;5.07;;;3.23;;
20314;SDS011;10315;50.958;13.080;2022-09-17T06:07:28;1.97;;;1.70;;
20314;SDS011;10315;50.958;13.080;2022-09-17T06:17:32;2.37;;;1.53;;
20314;SDS011;10315;50.958;13.080;2022-09-17T06:27:34;3.80;;;2.00;;
20314;SDS011;10315;50.958;13.080;2022-09-17T06:37:37;5.80;;;3.17;;
20314;SDS011;10315;50.958;13.080;2022-09-17T06:58:18;13.80;;;5.20;;
20314;SDS011;10315;50.958;13.080;2022-09-17T07:08:20;14.97;;;5.90;;
20314;SDS011;10315;50.958;13.080;2022-09-17T07:18:23;14.10;;;6.10;;
20314;SDS011;10315;50.958;13.080;2022-09-17T07:28:25;16.07;;;6.07;;
20314;SDS011;10315;50.958;13.080;2022-09-17T07:38:30;16.30;;;6.03;;
20314;SDS011;10315;50.958;13.080;2022-09-17T07:48:33;11.30;;;3.53;;
20314;SDS011;10315;50.958;13.080;2022-09-17T07:58:36;11.43;;;4.97;;
20314;SDS011;10315;50.958;13.080;2022-09-17T08:08:38;9.00;;;3.47;;
20314;SDS011;10315;50.958;13.080;2022-09-17T08:18:41;10.73;;;3.20;;
20314;SDS011;10315;50.958;13.080;2022-09-17T08:28:44;9.77;;;2.97;;
20314;SDS011;10315;50.958;13.080;2022-09-17T08:38:50;13.00;;;3.63;;
20314;SDS011;10315;50.958;13.080;2022-09-17T08:48:55;10.47;;;3.70;;
20314;SDS011;10315;50.958;13.080;2022-09-17T08:59:17;8.53;;;2.50;;
20314;SDS011;10315;50.958;13.080;2022-09-17T09:09:27;5.70;;;1.80;;
20314;SDS011;10315;50.958;13.080;2022-09-17T09:19:38;7.23;;;2.57;;
20314;SDS011;10315;50.958;13.080;2022-09-17T09:29:45;3.73;;;1.80;;
20314;SDS011;10315;50.958;13.080;2022-09-17T09:40:00;4.03;;;1.50;;
20314;SDS011;10315;50.958;13.080;2022-09-17T09:50:14;7.33;;;1.67;;
20314;SDS011;10315;50.958;13.080;2022-09-17T10:00:37;4.63;;;1.83;;
20314;SDS011;10315;50.958;13.080;2022-09-17T10:10:52;7.10;;;1.80;;
20314;SDS011;10315;50.958;13.080;2022-09-17T10:20:58;6.33;;;1.60;;
20314;SDS011;10315;50.958;13.080;2022-09-17T10:31:02;6.17;;;1.57;;
20314;SDS011;10315;50.958;13.080;2022-09-17T10:41:09;3.40;;;0.80;;
20314;SDS011;10315;50.958;13.080;2022-09-17T10:51:18;8.73;;;1.50;;
20314;SDS011;10315;50.958;13.080;2022-09-17T11:01:27;5.23;;;1.30;;
20314;SDS011;10315;50.958;13.080;2022-09-17T11:11:43;5.73;;;1.53;;
20314;SDS011;10315;50.958;13.080;2022-09-17T11:21:58;8.23;;;1.90;;
20314;SDS011;10315;50.958;13.080;2022-09-17T11:32:08;6.70;;;1.83;;
20314;SDS011;10315;50.958;13.080;2022-09-17T11:42:27;6.43;;;2.27;;
20314;SDS011;10315;50.958;13.080;2022-09-17T11:52:34;7.80;;;2.00;;
20314;SDS011;10315;50.958;13.080;2022-09-17T12:02:43;7.63;;;1.60;;
20314;SDS011;10315;50.958;13.080;2022-09-17T12:12:51;7.13;;;1.03;;
20314;SDS011;10315;50.958;13.080;2022-09-17T12:22:58;5.13;;;1.70;;
20314;SDS011;10315;50.958;13.080;2022-09-17T12:33:07;4.87;;;1.00;;
20314;SDS011;10315;50.958;13.080;2022-09-17T12:43:23;6.40;;;1.37;;
20314;SDS011;10315;50.958;13.080;2022-09-17T12:53:40;3.17;;;1.00;;
20314;SDS011;10315;50.958;13.080;2022-09-17T13:03:45;9.03;;;1.30;;
20314;SDS011;10315;50.958;13.080;2022-09-17T13:13:56;5.97;;;1.30;;
20314;SDS011;10315;50.958;13.080;2022-09-17T13:24:03;7.87;;;1.30;;
20314;SDS011;10315;50.958;13.080;2022-09-17T13:34:28;3.27;;;1.10;;
20314;SDS011;10315;50.958;13.080;2022-09-17T13:44:33;7.10;;;1.23;;
20314;SDS011;10315;50.958;13.080;2022-09-17T13:54:36;6.67;;;1.17;;
20314;SDS011;10315;50.958;13.080;2022-09-17T14:04:46;2.37;;;0.90;;
20314;SDS011;10315;50.958;13.080;2022-09-17T14:14:50;4.27;;;1.10;;
20314;SDS011;10315;50.958;13.080;2022-09-17T14:24:53;7.40;;;0.90;;
20314;SDS011;10315;50.958;13.080;2022-09-17T14:34:55;4.53;;;1.43;;
20314;SDS011;10315;50.958;13.080;2022-09-17T14:44:59;7.77;;;0.90;;
20314;SDS011;10315;50.958;13.080;2022-09-17T14:55:10;6.47;;;1.30;;
20314;SDS011;10315;50.958;13.080;2022-09-17T15:05:25;8.33;;;1.43;;
20314;SDS011;10315;50.958;13.080;2022-09-17T15:15:30;4.30;;;1.13;;
20314;SDS011;10315;50.958;13.080;2022-09-17T15:25:34;4.33;;;1.10;;
20314;SDS011;10315;50.958;13.080;2022-09-17T15:35:37;2.90;;;0.90;;
20314;SDS011;10315;50.958;13.080;2022-09-17T15:45:41;4.33;;;1.10;;
20314;SDS011;10315;50.958;13.080;2022-09-17T15:55:43;4.27;;;1.13;;
20314;SDS011;10315;50.958;13.080;2022-09-17T16:05:48;4.47;;;1.20;;
20314;SDS011;10315;50.958;13.080;2022-09-17T16:15:50;5.77;;;0.80;;
20314;SDS011;10315;50.958;13.080;2022-09-17T16:25:53;4.87;;;1.03;;
20314;SDS011;10315;50.958;13.080;2022-09-17T16:35:56;4.80;;;0.80;;
20314;SDS011;10315;50.958;13.080;2022-09-17T16:45:59;3.93;;;0.90;;
20314;SDS011;10315;50.958;13.080;2022-09-17T16:56:04;1.77;;;0.67;;
20314;SDS011;10315;50.958;13.080;2022-09-17T17:06:14;1.17;;;0.53;;
20314;SDS011;10315;50.958;13.080;2022-09-17T17:16:16;1.43;;;0.60;;
20314;SDS011;10315;50.958;13.080;2022-09-17T17:26:19;0.87;;;0.50;;
20314;SDS011;10315;50.958;13.080;2022-09-17T17:36:21;2.10;;;0.67;;
20314;SDS011;10315;50.958;13.080;2022-09-17T17:46:24;4.67;;;0.70;;
20314;SDS011;10315;50.958;13.080;2022-09-17T17:56:25;2.87;;;0.80;;
20314;SDS011;10315;50.958;13.080;2022-09-17T18:06:29;1.13;;;0.77;;
20314;SDS011;10315;50.958;13.080;2022-09-17T18:16:31;1.90;;;0.80;;
20314;SDS011;10315;50.958;13.080;2022-09-17T18:26:34;0.73;;;0.63;;
20314;SDS011;10315;50.958;13.080;2022-09-17T18:36:36;0.90;;;0.73;;
20314;SDS011;10315;50.958;13.080;2022-09-17T18:46:40;1.00;;;0.70;;
20314;SDS011;10315;50.958;13.080;2022-09-17T18:56:41;3.90;;;0.80;;
20314;SDS011;10315;50.958;13.080;2022-09-17T19:06:44;4.20;;;0.80;;
20314;SDS011;10315;50.958;13.080;2022-09-17T19:16:46;1.23;;;0.60;;
20314;SDS011;10315;50.958;13.080;2022-09-17T19:26:49;3.83;;;0.47;;
20314;SDS011;10315;50.958;13.080;2022-09-17T19:36:50;2.27;;;1.03;;
20314;SDS011;10315;50.958;13.080;2022-09-17T19:46:53;2.23;;;0.80;;
20314;SDS011;10315;50.958;13.080;2022-09-17T19:56:55;2.77;;;0.70;;
20314;SDS011;10315;50.958;13.080;2022-09-17T20:06:58;0.90;;;0.87;;
20314;SDS011;10315;50.958;13.080;2022-09-17T20:17:02;5.73;;;1.10;;
20314;SDS011;10315;50.958;13.080;2022-09-17T20:27:05;3.30;;;1.00;;
20314;SDS011;10315;50.958;13.080;2022-09-17T20:37:07;3.20;;;0.90;;
20314;SDS011;10315;50.958;13.080;2022-09-17T20:47:10;3.27;;;1.00;;
20314;SDS011;10315;50.958;13.080;2022-09-17T20:57:11;1.60;;;1.03;;
20314;SDS011;10315;50.958;13.080;2022-09-17T21:07:14;3.37;;;1.30;;
20314;SDS011;10315;50.958;13.080;2022-09-17T21:17:16;5.57;;;1.33;;
20314;SDS011;10315;50.958;13.080;2022-09-17T21:27:19;2.60;;;0.87;;
20314;SDS011;10315;50.958;13.080;2022-09-17T21:37:20;3.13;;;1.20;;
20314;SDS011;10315;50.958;13.080;2022-09-17T21:47:23;6.17;;;1.23;;
20314;SDS011;10315;50.958;13.080;2022-09-17T21:57:26;6.27;;;1.10;;
20314;SDS011;10315;50.958;13.080;2022-09-17T22:07:29;5.90;;;1.57;;
20314;SDS011;10315;50.958;13.080;2022-09-17T22:17:31;2.90;;;0.80;;
20314;SDS011;10315;50.958;13.080;2022-09-17T22:27:34;6.40;;;1.03;;
20314;SDS011;10315;50.958;13.080;2022-09-17T22:37:35;3.43;;;0.87;;
20314;SDS011;10315;50.958;13.080;2022-09-17T22:47:39;4.80;;;0.87;;
20314;SDS011;10315;50.958;13.080;2022-09-17T22:57:41;1.70;;;0.80;;
20314;SDS011;10315;50.958;13.080;2022-09-17T23:07:44;3.43;;;1.20;;
20314;SDS011;10315;50.958;13.080;2022-09-17T23:17:46;6.53;;;1.40;;
20314;SDS011;10315;50.958;13.080;2022-09-17T23:27:49;7.47;;;1.97;;
20314;SDS011;10315;50.958;13.080;2022-09-17T23:37:50;7.43;;;1.50;;
20314;SDS011;10315;50.958;13.080;2022-09-17T23:47:53;14.00;;;1.93;;
20314;SDS011;10315;50.958;13.080;2022-09-17T23:57:55;8.83;;;2.43;;
